Terminal Aerodrome Forecast
Issued by NWS

Home | Current Version | Previous Version | Text Only | Print | Product List | Glossary On
Versions: 1 2 3 4 5 6 7 8 9 10 11 12 13 14 15 16 17 18 19 20 21 22 23 24 25 26 27 28 29 30 31 32 33 34 35 36 37 38
000
FTUS41 KBOX 270544 RRA
TAFHYA
TAF
KHYA 270544Z 2706/2806 10007KT P6SM VCSH OVC028
     FM271300 12011G22KT 4SM BR VCSH OVC010
     FM271500 14011G20KT 3SM -RA BR OVC010
     FM272200 18010KT 3/4SM -SHRA BR OVC003
     FM272300 20010KT 1/2SM FG VCSH OVC003
     FM280300 24005KT 5SM BR OVC003=

USA.gov is the U.S. government's official web portal to all federal, state and local government web resources and services.